createdAt,value
2023-11-25T00:01:34.648Z,28.65
2023-11-25T00:04:03.295Z,31.50
2023-11-25T00:06:33.323Z,28.48
2023-11-25T00:09:02.574Z,32.00
2023-11-25T00:11:31.146Z,39.35
2023-11-25T00:14:00.058Z,35.40
2023-11-25T00:16:28.846Z,27.13
2023-11-25T00:18:57.436Z,25.85
2023-11-25T00:21:26.129Z,28.95
2023-11-25T00:23:56.100Z,29.08
2023-11-25T00:26:26.544Z,32.70
2023-11-25T00:29:01.198Z,35.47
2023-11-25T00:31:30.469Z,33.40
2023-11-25T00:33:59.566Z,36.50
2023-11-25T00:36:28.268Z,38.50
2023-11-25T00:39:00.756Z,30.25
2023-11-25T00:41:29.463Z,32.28
2023-11-25T00:43:58.107Z,39.42
2023-11-25T00:46:26.786Z,36.92
2023-11-25T00:48:55.796Z,32.53
2023-11-25T00:51:24.354Z,35.72
2023-11-25T00:53:52.879Z,36.53
2023-11-25T00:56:23.319Z,35.35
2023-11-25T00:58:52.504Z,32.78
2023-11-25T01:01:21.388Z,36.03
2023-11-25T01:03:50.033Z,36.90
2023-11-25T01:06:18.710Z,32.13
2023-11-25T01:08:47.487Z,33.05
2023-11-25T01:11:18.377Z,33.83
2023-11-25T01:13:48.395Z,33.00
2023-11-25T01:16:20.384Z,40.63
2023-11-25T01:18:49.100Z,33.10
2023-11-25T01:21:18.388Z,34.85
2023-11-25T01:23:47.223Z,27.08
2023-11-25T01:26:15.793Z,27.20
2023-11-25T01:28:44.558Z,30.77
2023-11-25T01:31:15.628Z,34.78
2023-11-25T01:33:44.727Z,29.23
2023-11-25T01:36:13.669Z,35.78
2023-11-25T01:38:42.284Z,37.78
2023-11-25T01:41:10.878Z,34.08
2023-11-25T01:43:39.484Z,38.08
2023-11-25T01:46:08.913Z,35.95
2023-11-25T01:48:40.030Z,40.08
2023-11-25T01:51:08.808Z,38.55
2023-11-25T01:53:39.883Z,45.38
2023-11-25T01:56:11.057Z,40.33
2023-11-25T01:58:41.233Z,45.88
2023-11-25T02:01:09.958Z,32.03
2023-11-25T02:03:41.103Z,31.65
2023-11-25T02:06:09.956Z,38.30
2023-11-25T02:08:38.550Z,40.38
2023-11-25T02:11:07.526Z,35.00
2023-11-25T02:13:36.128Z,31.92
2023-11-25T02:16:05.530Z,36.58
2023-11-25T02:18:34.362Z,37.90
2023-11-25T02:21:24.376Z,34.20
2023-11-25T02:23:54.632Z,32.78
2023-11-25T02:26:23.459Z,36.95
2023-11-25T02:28:53.539Z,39.17
2023-11-25T02:31:23.068Z,37.25
2023-11-25T02:33:51.890Z,35.60
2023-11-25T02:36:20.524Z,37.78
2023-11-25T02:38:50.522Z,29.58
2023-11-25T02:41:20.644Z,33.90
2023-11-25T02:43:49.490Z,38.28
2023-11-25T02:46:18.805Z,38.75
2023-11-25T02:48:47.506Z,36.38
2023-11-25T02:51:16.154Z,33.00
2023-11-25T02:53:45.306Z,32.92
2023-11-25T02:56:14.078Z,33.70
2023-11-25T02:58:44.110Z,39.08
2023-11-25T03:01:15.447Z,32.33
2023-11-25T03:03:49.712Z,36.45
2023-11-25T03:06:23.632Z,35.75
2023-11-25T03:08:53.446Z,37.67
2023-11-25T03:11:22.319Z,37.58
2023-11-25T03:13:52.387Z,37.35
2023-11-25T03:16:26.261Z,41.45
2023-11-25T03:18:55.142Z,42.53
2023-11-25T03:21:23.796Z,36.78
2023-11-25T03:23:53.594Z,37.90
2023-11-25T03:26:22.707Z,36.90
2023-11-25T03:28:52.844Z,41.92
2023-11-25T03:31:21.523Z,35.55
2023-11-25T03:33:50.828Z,35.70
2023-11-25T03:36:19.589Z,35.75
2023-11-25T03:38:48.132Z,31.73
2023-11-25T03:41:17.553Z,37.03
2023-11-25T03:43:46.139Z,35.13
2023-11-25T03:46:16.309Z,34.03
2023-11-25T03:48:44.844Z,35.50
2023-11-25T03:51:13.607Z,38.00
2023-11-25T03:53:42.283Z,39.17
2023-11-25T03:56:10.948Z,38.75
2023-11-25T03:58:39.461Z,38.55
2023-11-25T04:01:08.332Z,30.67
2023-11-25T04:03:38.834Z,33.95
2023-11-25T04:06:08.458Z,39.17
2023-11-25T04:08:36.999Z,48.17
2023-11-25T04:11:09.092Z,104.93
2023-11-25T04:13:38.833Z,175.23
2023-11-25T04:16:08.060Z,99.38
2023-11-25T04:18:39.143Z,107.13
2023-11-25T04:21:08.455Z,51.33
2023-11-25T04:23:37.530Z,43.40
2023-11-25T04:26:07.168Z,48.22
2023-11-25T04:28:36.019Z,43.00
2023-11-25T04:31:04.975Z,39.38
2023-11-25T04:33:36.282Z,51.30
2023-11-25T04:36:07.402Z,47.63
2023-11-25T04:38:36.272Z,41.80
2023-11-25T04:41:04.941Z,38.67
2023-11-25T04:43:33.586Z,38.78
2023-11-25T04:46:03.938Z,39.03
2023-11-25T04:48:32.745Z,34.90
2023-11-25T04:51:01.292Z,39.15
2023-11-25T04:53:31.305Z,40.15
2023-11-25T04:56:01.118Z,38.17
2023-11-25T04:58:29.672Z,34.53
2023-11-25T05:00:58.956Z,36.45
2023-11-25T05:03:27.941Z,37.75
2023-11-25T05:05:58.155Z,35.90
2023-11-25T05:08:26.690Z,40.00
2023-11-25T05:10:56.729Z,37.65
2023-11-25T05:13:25.302Z,36.20
2023-11-25T05:15:54.655Z,33.58
2023-11-25T05:18:23.211Z,29.63
2023-11-25T05:20:51.736Z,28.02
2023-11-25T05:23:20.249Z,24.08
2023-11-25T05:25:48.822Z,32.28
2023-11-25T05:28:20.075Z,31.30
2023-11-25T05:30:48.529Z,33.00
2023-11-25T05:33:17.162Z,27.85
2023-11-25T05:35:45.902Z,27.50
2023-11-25T05:38:14.635Z,31.33
2023-11-25T05:40:43.561Z,33.83
2023-11-25T05:43:13.140Z,32.38
2023-11-25T05:45:45.132Z,34.58
2023-11-25T05:48:14.098Z,27.92
2023-11-25T05:50:42.745Z,32.25
2023-11-25T05:53:11.738Z,31.50
2023-11-25T05:55:40.329Z,30.52
2023-11-25T05:58:09.247Z,29.35
2023-11-25T06:00:38.017Z,42.67
2023-11-25T06:03:08.138Z,51.40
2023-11-25T06:05:36.899Z,55.05
2023-11-25T06:08:05.585Z,52.63
2023-11-25T06:10:34.082Z,59.35
2023-11-25T06:13:04.943Z,55.83
2023-11-25T06:15:33.475Z,53.35
2023-11-25T06:18:02.156Z,45.75
2023-11-25T06:20:32.252Z,52.25
2023-11-25T06:23:00.856Z,49.80
2023-11-25T06:25:30.257Z,58.65
2023-11-25T06:27:58.935Z,52.47
2023-11-25T06:30:27.416Z,40.10
2023-11-25T06:32:55.974Z,43.75
2023-11-25T06:35:27.080Z,37.72
2023-11-25T06:37:57.173Z,32.95
2023-11-25T06:40:25.915Z,31.00
2023-11-25T06:42:55.045Z,32.13
2023-11-25T06:45:23.799Z,30.38
2023-11-25T06:47:52.383Z,28.05
2023-11-25T06:50:21.782Z,30.40
2023-11-25T06:52:50.899Z,28.23
2023-11-25T06:55:21.902Z,30.15
2023-11-25T06:57:51.533Z,25.85
2023-11-25T07:00:20.663Z,36.05
2023-11-25T07:02:49.719Z,34.30
2023-11-25T07:05:18.970Z,31.67
2023-11-25T07:07:46.531Z,35.38
2023-11-25T07:10:16.010Z,29.27
2023-11-25T07:12:46.706Z,27.58
2023-11-25T07:15:15.594Z,29.90
2023-11-25T07:17:45.096Z,34.55
2023-11-25T07:20:19.627Z,40.40
2023-11-25T07:22:48.549Z,33.78
2023-11-25T07:25:19.840Z,33.45
2023-11-25T07:27:51.476Z,32.13
2023-11-25T07:30:20.069Z,35.47
2023-11-25T07:32:49.099Z,32.92
2023-11-25T07:35:17.950Z,33.70
2023-11-25T07:37:46.553Z,35.63
2023-11-25T07:40:16.934Z,37.85
2023-11-25T07:42:50.395Z,32.90
2023-11-25T07:45:20.864Z,64.30
2023-11-25T07:47:49.513Z,45.00
2023-11-25T07:50:18.741Z,40.97
2023-11-25T07:52:48.803Z,29.50
2023-11-25T07:55:18.295Z,32.45
2023-11-25T07:57:48.914Z,85.72
2023-11-25T08:00:20.821Z,33.83
2023-11-25T08:02:51.546Z,47.15
2023-11-25T08:05:26.414Z,42.10
2023-11-25T08:07:56.195Z,44.85
2023-11-25T08:10:32.662Z,64.53
2023-11-25T08:13:01.573Z,49.50
2023-11-25T08:15:30.624Z,49.97
2023-11-25T08:18:01.112Z,49.60
2023-11-25T08:20:29.801Z,137.95
2023-11-25T08:22:58.439Z,74.88
2023-11-25T08:25:27.364Z,85.05
2023-11-25T08:27:55.932Z,78.53
2023-11-25T08:30:24.739Z,48.38
2023-11-25T08:32:53.408Z,62.08
2023-11-25T08:35:23.403Z,34.20
2023-11-25T08:37:51.905Z,51.72
2023-11-25T08:40:23.277Z,39.33
2023-11-25T08:42:52.757Z,30.35
2023-11-25T08:45:21.807Z,31.77
2023-11-25T08:47:50.984Z,31.98
2023-11-25T08:50:20.369Z,30.20
2023-11-25T08:52:52.271Z,36.38
2023-11-25T08:55:23.635Z,29.67
2023-11-25T08:57:53.631Z,29.52
2023-11-25T09:00:22.756Z,33.17
2023-11-25T09:02:53.875Z,26.48
2023-11-25T09:05:24.680Z,22.42
2023-11-25T09:07:57.075Z,24.40
2023-11-25T09:10:28.055Z,24.05
2023-11-25T09:12:57.031Z,28.90
2023-11-25T09:15:26.037Z,26.83
2023-11-25T09:17:54.724Z,27.38
2023-11-25T09:20:23.731Z,27.55
2023-11-25T09:22:53.558Z,30.23
2023-11-25T09:25:24.923Z,25.13
2023-11-25T09:27:53.745Z,27.88
2023-11-25T09:30:24.365Z,30.38
2023-11-25T09:32:54.863Z,30.40
2023-11-25T09:35:24.167Z,28.55
2023-11-25T09:37:53.002Z,64.22
2023-11-25T09:40:21.974Z,38.13
2023-11-25T09:42:52.175Z,52.05
2023-11-25T09:45:29.878Z,46.08
2023-11-25T09:47:58.645Z,49.35
2023-11-25T09:50:27.207Z,45.25
2023-11-25T09:52:57.005Z,53.95
2023-11-25T09:55:26.474Z,39.58
2023-11-25T09:58:04.637Z,59.75
2023-11-25T10:00:34.199Z,40.67
2023-11-25T10:03:03.965Z,49.13
2023-11-25T10:05:33.816Z,48.97
2023-11-25T10:08:02.840Z,44.22
2023-11-25T10:10:31.713Z,58.30
2023-11-25T10:13:04.581Z,74.97
2023-11-25T10:15:34.400Z,58.50
2023-11-25T10:18:02.984Z,64.93
2023-11-25T10:20:32.100Z,55.67
2023-11-25T10:23:00.773Z,57.55
2023-11-25T10:25:29.836Z,47.25
2023-11-25T10:27:58.942Z,42.00
2023-11-25T10:30:30.056Z,51.65
2023-11-25T10:33:02.960Z,48.53
2023-11-25T10:35:31.680Z,46.80
2023-11-25T10:38:00.398Z,47.67
2023-11-25T10:40:29.405Z,51.70
2023-11-25T10:43:03.350Z,49.72
2023-11-25T10:45:33.968Z,54.97
2023-11-25T10:48:04.142Z,56.50
2023-11-25T10:50:33.746Z,49.00
2023-11-25T10:53:06.677Z,46.15
2023-11-25T10:55:36.177Z,52.95
2023-11-25T10:58:06.684Z,50.50
2023-11-25T11:00:37.229Z,62.33
2023-11-25T11:03:10.802Z,60.65
2023-11-25T11:05:47.073Z,49.30
2023-11-25T11:08:20.326Z,46.90
2023-11-25T11:11:00.549Z,51.67
2023-11-25T11:13:34.093Z,68.07
2023-11-25T11:16:13.744Z,77.32
2023-11-25T11:18:45.543Z,49.58
2023-11-25T11:21:17.352Z,49.15
2023-11-25T11:23:46.298Z,65.38
2023-11-25T11:26:28.722Z,63.58
2023-11-25T11:29:10.066Z,53.97
2023-11-25T11:32:04.689Z,49.80
2023-11-25T11:34:35.469Z,52.83
2023-11-25T11:37:07.536Z,47.28
2023-11-25T11:39:40.043Z,39.10
2023-11-25T11:42:30.914Z,56.97
2023-11-25T11:45:12.940Z,69.90
2023-11-25T11:47:47.229Z,53.67
2023-11-25T11:50:20.527Z,66.93
2023-11-25T11:52:51.984Z,72.00
2023-11-25T11:55:39.056Z,76.85
2023-11-25T11:58:09.537Z,114.05
2023-11-25T12:00:41.258Z,110.57
2023-11-25T12:03:11.720Z,544.92
2023-11-25T12:05:40.630Z,546.83
2023-11-25T12:08:09.536Z,355.92
2023-11-25T12:10:39.153Z,201.85
2023-11-25T12:13:09.984Z,142.25
2023-11-25T12:15:38.938Z,74.63
2023-11-25T12:18:08.526Z,82.60
2023-11-25T12:20:38.717Z,77.40
2023-11-25T12:23:10.058Z,87.47
2023-11-25T12:25:39.100Z,109.95
2023-11-25T12:28:09.481Z,117.15
2023-11-25T12:30:39.712Z,169.90
2023-11-25T12:33:10.009Z,143.85
2023-11-25T12:35:42.685Z,157.77
2023-11-25T12:38:15.685Z,153.32
2023-11-25T12:40:47.599Z,177.05
2023-11-25T12:43:17.511Z,161.10
2023-11-25T12:45:48.196Z,178.63
2023-11-25T12:48:31.360Z,164.93
2023-11-25T12:51:04.746Z,160.43
2023-11-25T12:53:34.160Z,177.32
2023-11-25T12:56:03.081Z,150.30
2023-11-25T12:58:32.442Z,143.82
2023-11-25T13:01:01.132Z,135.27
2023-11-25T13:03:32.680Z,128.60
2023-11-25T13:06:05.722Z,132.57
2023-11-25T13:08:38.389Z,148.38
2023-11-25T13:11:10.714Z,149.80
2023-11-25T13:13:41.116Z,146.10
2023-11-25T13:16:14.409Z,154.63
2023-11-25T13:18:49.542Z,143.32
2023-11-25T13:21:19.966Z,118.30
2023-11-25T13:23:51.608Z,131.88
2023-11-25T13:26:20.433Z,119.85
2023-11-25T13:28:49.029Z,117.93
2023-11-25T13:31:17.871Z,127.15
2023-11-25T13:33:46.594Z,114.85
2023-11-25T13:36:15.473Z,102.32
2023-11-25T13:38:45.507Z,115.05
2023-11-25T13:41:14.216Z,111.22
2023-11-25T13:43:42.869Z,109.20
2023-11-25T13:46:11.500Z,96.75
2023-11-25T13:48:40.193Z,96.05
2023-11-25T13:51:10.259Z,95.93
2023-11-25T13:53:39.160Z,89.30
2023-11-25T13:56:11.399Z,94.32
2023-11-25T13:58:40.075Z,92.13
2023-11-25T14:01:08.675Z,74.60
2023-11-25T14:03:37.435Z,85.32
2023-11-25T14:06:06.370Z,74.30
2023-11-25T14:08:35.528Z,95.65
2023-11-25T14:11:05.640Z,101.32
2023-11-25T14:13:35.849Z,100.05
2023-11-25T14:16:04.450Z,101.72
2023-11-25T14:18:32.995Z,104.93
2023-11-25T14:21:01.440Z,92.70
2023-11-25T14:23:31.216Z,84.55
2023-11-25T14:26:00.099Z,94.10
2023-11-25T14:28:29.024Z,87.97
2023-11-25T14:30:59.158Z,83.97
2023-11-25T14:33:27.779Z,87.60
2023-11-25T14:35:56.436Z,89.70
2023-11-25T14:38:25.069Z,104.97
2023-11-25T14:40:54.280Z,96.38
2023-11-25T14:43:22.911Z,93.28
2023-11-25T14:45:52.088Z,120.47
2023-11-25T14:48:24.519Z,99.93
2023-11-25T14:50:54.093Z,125.72
2023-11-25T14:53:22.944Z,114.60
2023-11-25T14:55:51.960Z,144.20
2023-11-25T14:58:20.603Z,157.82
2023-11-25T15:00:49.363Z,201.07
2023-11-25T15:03:18.061Z,205.90
2023-11-25T15:05:48.275Z,211.13
2023-11-25T15:08:16.914Z,174.70
2023-11-25T15:10:47.927Z,173.93
2023-11-25T15:13:17.059Z,164.25
2023-11-25T15:15:47.819Z,158.98
2023-11-25T15:18:17.199Z,146.80
2023-11-25T15:20:47.817Z,162.82
2023-11-25T15:23:16.777Z,161.68
2023-11-25T15:25:45.976Z,143.35
2023-11-25T15:28:17.170Z,151.38
2023-11-25T15:30:46.550Z,139.35
2023-11-25T15:33:15.708Z,124.32
2023-11-25T15:35:44.630Z,115.63
2023-11-25T15:38:14.613Z,107.65
2023-11-25T15:40:43.272Z,102.95
2023-11-25T15:43:12.161Z,99.00
2023-11-25T15:45:41.193Z,104.00
2023-11-25T15:48:09.912Z,97.03
2023-11-25T15:50:40.224Z,99.75
2023-11-25T15:53:14.037Z,98.38
2023-11-25T15:55:44.234Z,91.07
2023-11-25T15:58:14.198Z,99.47
2023-11-25T16:00:43.006Z,91.35
2023-11-25T16:03:11.710Z,97.00
2023-11-25T16:05:40.531Z,92.38
2023-11-25T16:08:09.162Z,97.40
2023-11-25T16:10:40.140Z,88.15
2023-11-25T16:13:11.237Z,95.10
2023-11-25T16:15:39.814Z,83.78
2023-11-25T16:18:08.995Z,85.18
2023-11-25T16:20:41.442Z,86.43
2023-11-25T16:23:10.477Z,81.10
2023-11-25T16:25:39.229Z,87.85
2023-11-25T16:28:09.569Z,96.00
2023-11-25T16:30:38.147Z,107.55
2023-11-25T16:33:08.274Z,90.38
2023-11-25T16:35:38.028Z,95.45
2023-11-25T16:38:06.642Z,83.75
2023-11-25T16:40:36.138Z,94.90
2023-11-25T16:43:05.724Z,87.13
2023-11-25T16:48:05.814Z,92.97
2023-11-25T16:50:38.945Z,99.88
2023-11-25T16:53:09.208Z,150.00
2023-11-25T16:55:37.937Z,157.75
2023-11-25T16:58:06.572Z,247.63
2023-11-25T17:00:36.720Z,243.10
2023-11-25T17:03:06.133Z,217.38
2023-11-25T17:05:36.590Z,184.15
2023-11-25T17:08:08.168Z,165.40
2023-11-25T17:10:36.905Z,176.68
2023-11-25T17:13:05.459Z,169.65
2023-11-25T17:15:34.149Z,147.07
2023-11-25T17:18:04.729Z,126.32
2023-11-25T17:20:33.327Z,126.47
2023-11-25T17:23:02.569Z,107.90
2023-11-25T17:25:32.307Z,89.97
2023-11-25T17:28:01.018Z,95.00
2023-11-25T17:30:30.209Z,92.10
2023-11-25T17:32:58.986Z,91.55
2023-11-25T17:35:29.107Z,97.18
2023-11-25T17:37:58.116Z,110.32
2023-11-25T17:40:29.675Z,119.63
2023-11-25T17:42:58.359Z,111.57
2023-11-25T17:45:27.177Z,108.68
2023-11-25T17:47:56.145Z,111.57
2023-11-25T17:50:25.131Z,115.13
2023-11-25T17:53:06.482Z,105.80
2023-11-25T17:55:41.022Z,110.22
2023-11-25T17:58:09.840Z,99.68
2023-11-25T18:00:40.104Z,107.15
2023-11-25T18:03:12.622Z,106.78
2023-11-25T18:05:41.265Z,111.40
2023-11-25T18:08:11.358Z,107.38
2023-11-25T18:10:41.397Z,100.30
2023-11-25T18:13:10.328Z,101.63
2023-11-25T18:15:39.136Z,109.43
2023-11-25T18:18:08.089Z,104.55
2023-11-25T18:20:37.242Z,103.15
2023-11-25T18:23:06.059Z,96.72
2023-11-25T18:25:36.153Z,100.05
2023-11-25T18:28:05.039Z,100.30
2023-11-25T18:30:33.971Z,94.20
2023-11-25T18:33:03.227Z,104.95
2023-11-25T18:35:32.211Z,108.72
2023-11-25T18:38:00.901Z,108.47
2023-11-25T18:40:29.905Z,109.35
2023-11-25T18:43:02.327Z,132.27
2023-11-25T18:45:30.949Z,142.35
2023-11-25T18:47:59.434Z,137.80
2023-11-25T18:50:29.025Z,126.35
2023-11-25T18:52:57.743Z,166.80
2023-11-25T18:55:26.459Z,164.38
2023-11-25T18:57:54.887Z,154.30
2023-11-25T19:00:25.977Z,155.75
2023-11-25T19:02:54.691Z,159.60
2023-11-25T19:05:23.261Z,172.70
2023-11-25T19:07:52.116Z,150.48
2023-11-25T19:10:20.879Z,151.63
2023-11-25T19:12:49.944Z,147.27
2023-11-25T19:15:18.424Z,151.95
2023-11-25T19:17:48.505Z,147.98
2023-11-25T19:20:17.561Z,126.28
2023-11-25T19:22:46.310Z,144.75
2023-11-25T19:25:14.871Z,144.35
2023-11-25T19:27:43.903Z,146.45
2023-11-25T19:30:14.097Z,167.50
2023-11-25T19:32:42.727Z,174.52
2023-11-25T19:35:13.399Z,183.13
2023-11-25T19:37:42.095Z,186.15
2023-11-25T19:40:11.994Z,158.57
2023-11-25T19:42:42.249Z,171.63
2023-11-25T19:45:11.674Z,176.32
2023-11-25T19:47:40.211Z,188.30
2023-11-25T19:50:10.856Z,194.75
2023-11-25T19:52:40.949Z,214.45
2023-11-25T19:55:11.043Z,234.65
2023-11-25T19:57:39.772Z,226.85
2023-11-25T20:00:11.270Z,205.50
2023-11-25T20:02:42.881Z,219.35
2023-11-25T20:05:11.803Z,232.93
2023-11-25T20:07:43.118Z,217.07
2023-11-25T20:10:12.552Z,224.80
2023-11-25T20:12:41.557Z,247.63
2023-11-25T20:15:11.936Z,218.80
2023-11-25T20:17:40.767Z,192.98
2023-11-25T20:20:11.158Z,203.13
2023-11-25T20:22:42.289Z,185.00
2023-11-25T20:25:11.023Z,195.80
2023-11-25T20:27:39.721Z,192.63
2023-11-25T20:30:09.625Z,201.05
2023-11-25T20:32:38.233Z,165.07
2023-11-25T20:35:07.633Z,160.75
2023-11-25T20:37:36.245Z,168.90
2023-11-25T20:40:10.077Z,169.43
2023-11-25T20:42:38.753Z,162.85
2023-11-25T20:45:08.460Z,143.93
2023-11-25T20:47:37.590Z,180.07
2023-11-25T20:50:07.405Z,187.50
2023-11-25T20:52:36.289Z,190.77
2023-11-25T20:55:07.298Z,189.18
2023-11-25T20:57:35.930Z,163.93
2023-11-25T21:00:10.432Z,165.18
2023-11-25T21:02:40.961Z,152.27
2023-11-25T21:05:10.081Z,141.82
2023-11-25T21:07:42.286Z,130.80
2023-11-25T21:10:14.062Z,127.13
2023-11-25T21:12:43.576Z,122.22
2023-11-25T21:15:15.735Z,122.75
2023-11-25T21:17:45.032Z,129.40
2023-11-25T21:20:13.983Z,127.75
2023-11-25T21:22:42.844Z,124.32
2023-11-25T21:25:16.532Z,123.05
2023-11-25T21:27:46.045Z,117.15
2023-11-25T21:30:15.874Z,118.50
2023-11-25T21:32:44.684Z,127.40
2023-11-25T21:35:14.095Z,135.80
2023-11-25T21:37:43.762Z,128.23
2023-11-25T21:40:20.913Z,134.07
2023-11-25T21:42:52.516Z,128.10
2023-11-25T21:45:21.255Z,129.77
2023-11-25T21:47:49.813Z,127.07
2023-11-25T21:50:18.772Z,123.70
2023-11-25T21:52:47.596Z,137.23
2023-11-25T21:55:17.614Z,131.65
2023-11-25T21:57:46.633Z,153.38
2023-11-25T22:00:16.782Z,129.52
2023-11-25T22:02:45.710Z,134.20
2023-11-25T22:05:14.698Z,148.32
2023-11-25T22:07:43.584Z,144.63
2023-11-25T22:10:24.329Z,136.02
2023-11-25T22:12:58.380Z,147.48
2023-11-25T22:15:27.183Z,137.32
2023-11-25T22:17:55.927Z,146.00
2023-11-25T22:20:26.183Z,144.38
2023-11-25T22:22:56.088Z,147.18
2023-11-25T22:25:35.494Z,133.82
2023-11-25T22:28:10.956Z,139.75
2023-11-25T22:30:39.841Z,133.07
2023-11-25T22:33:08.962Z,134.20
2023-11-25T22:35:47.882Z,128.35
2023-11-25T22:38:22.405Z,135.23
2023-11-25T22:40:51.035Z,140.35
2023-11-25T22:43:21.132Z,143.75
2023-11-25T22:45:49.703Z,143.93
2023-11-25T22:48:20.209Z,132.70
2023-11-25T22:50:49.863Z,141.30
2023-11-25T22:53:18.365Z,136.68
2023-11-25T22:55:47.019Z,130.20
2023-11-25T22:58:15.726Z,141.02
2023-11-25T23:00:51.246Z,127.15
2023-11-25T23:03:21.068Z,129.05
2023-11-25T23:05:50.092Z,130.57
2023-11-25T23:08:21.112Z,118.05
2023-11-25T23:10:50.054Z,131.90
2023-11-25T23:13:18.995Z,126.53
2023-11-25T23:15:49.066Z,131.48
2023-11-25T23:18:18.408Z,116.30
2023-11-25T23:20:47.067Z,115.50
2023-11-25T23:23:15.676Z,114.95
2023-11-25T23:25:48.220Z,120.65
2023-11-25T23:28:17.938Z,116.35
2023-11-25T23:30:46.590Z,110.13
2023-11-25T23:33:16.674Z,105.80
2023-11-25T23:35:45.380Z,121.82
2023-11-25T23:38:13.912Z,113.65
2023-11-25T23:40:42.358Z,106.47
2023-11-25T23:43:11.688Z,105.22
2023-11-25T23:45:41.849Z,100.68
2023-11-25T23:48:11.460Z,93.78
2023-11-25T23:50:42.134Z,96.13
2023-11-25T23:53:10.854Z,91.15
2023-11-25T23:55:40.461Z,95.25
2023-11-25T23:58:09.150Z,98.78
